sensor_id;sensor_type;location;lat;lon;timestamp;P1;durP1;ratioP1;P2;durP2;ratioP2
3831;SDS011;12460;42.662;23.288;2023-12-28T00:02:36;22.00;;;15.20;;
3831;SDS011;12460;42.662;23.288;2023-12-28T00:17:38;18.00;;;12.80;;
3831;SDS011;12460;42.662;23.288;2023-12-28T00:32:40;14.70;;;11.03;;
3831;SDS011;12460;42.662;23.288;2023-12-28T00:47:45;19.50;;;11.93;;
3831;SDS011;12460;42.662;23.288;2023-12-28T01:02:46;18.73;;;13.10;;
3831;SDS011;12460;42.662;23.288;2023-12-28T01:17:49;20.33;;;13.20;;
3831;SDS011;12460;42.662;23.288;2023-12-28T01:32:51;16.57;;;11.20;;
3831;SDS011;12460;42.662;23.288;2023-12-28T01:47:59;18.60;;;12.03;;
3831;SDS011;12460;42.662;23.288;2023-12-28T02:03:02;15.07;;;11.20;;
3831;SDS011;12460;42.662;23.288;2023-12-28T02:18:15;16.40;;;11.07;;
3831;SDS011;12460;42.662;23.288;2023-12-28T02:33:26;11.17;;;8.47;;
3831;SDS011;12460;42.662;23.288;2023-12-28T02:48:30;12.43;;;8.80;;
3831;SDS011;12460;42.662;23.288;2023-12-28T03:03:32;10.20;;;8.43;;
3831;SDS011;12460;42.662;23.288;2023-12-28T03:18:35;13.03;;;9.23;;
3831;SDS011;12460;42.662;23.288;2023-12-28T03:33:36;20.33;;;12.37;;
3831;SDS011;12460;42.662;23.288;2023-12-28T03:48:38;23.70;;;14.53;;
3831;SDS011;12460;42.662;23.288;2023-12-28T04:03:41;25.17;;;17.03;;
3831;SDS011;12460;42.662;23.288;2023-12-28T04:18:43;25.97;;;17.47;;
3831;SDS011;12460;42.662;23.288;2023-12-28T04:33:45;24.50;;;16.43;;
3831;SDS011;12460;42.662;23.288;2023-12-28T04:48:48;24.70;;;15.60;;
3831;SDS011;12460;42.662;23.288;2023-12-28T05:03:50;22.07;;;14.67;;
3831;SDS011;12460;42.662;23.288;2023-12-28T05:18:55;19.63;;;13.27;;
3831;SDS011;12460;42.662;23.288;2023-12-28T05:33:57;30.63;;;17.70;;
3831;SDS011;12460;42.662;23.288;2023-12-28T05:49:00;24.27;;;15.27;;
3831;SDS011;12460;42.662;23.288;2023-12-28T06:04:02;24.10;;;14.77;;
3831;SDS011;12460;42.662;23.288;2023-12-28T06:19:04;22.10;;;15.57;;
3831;SDS011;12460;42.662;23.288;2023-12-28T06:34:07;23.53;;;16.03;;
3831;SDS011;12460;42.662;23.288;2023-12-28T06:49:09;32.07;;;21.10;;
3831;SDS011;12460;42.662;23.288;2023-12-28T07:04:12;30.47;;;20.67;;
3831;SDS011;12460;42.662;23.288;2023-12-28T07:19:14;33.50;;;23.50;;
3831;SDS011;12460;42.662;23.288;2023-12-28T07:34:16;33.43;;;22.87;;
3831;SDS011;12460;42.662;23.288;2023-12-28T07:49:18;32.23;;;24.80;;
3831;SDS011;12460;42.662;23.288;2023-12-28T08:04:20;30.00;;;24.03;;
3831;SDS011;12460;42.662;23.288;2023-12-28T08:19:22;31.97;;;24.63;;
3831;SDS011;12460;42.662;23.288;2023-12-28T08:34:24;29.50;;;23.50;;
3831;SDS011;12460;42.662;23.288;2023-12-28T08:49:27;24.37;;;20.70;;
3831;SDS011;12460;42.662;23.288;2023-12-28T09:04:29;22.40;;;19.33;;
3831;SDS011;12460;42.662;23.288;2023-12-28T09:19:31;23.77;;;20.53;;
3831;SDS011;12460;42.662;23.288;2023-12-28T09:34:33;27.00;;;20.50;;
3831;SDS011;12460;42.662;23.288;2023-12-28T09:49:35;23.50;;;19.50;;
3831;SDS011;12460;42.662;23.288;2023-12-28T10:04:39;21.90;;;18.13;;
3831;SDS011;12460;42.662;23.288;2023-12-28T10:19:41;21.87;;;19.53;;
3831;SDS011;12460;42.662;23.288;2023-12-28T10:34:43;35.10;;;26.00;;
3831;SDS011;12460;42.662;23.288;2023-12-28T10:49:46;44.43;;;36.27;;
3831;SDS011;12460;42.662;23.288;2023-12-28T11:04:50;42.77;;;32.87;;
3831;SDS011;12460;42.662;23.288;2023-12-28T11:19:54;42.27;;;32.93;;
3831;SDS011;12460;42.662;23.288;2023-12-28T11:34:57;32.63;;;27.57;;
3831;SDS011;12460;42.662;23.288;2023-12-28T11:50:06;35.20;;;30.10;;
3831;SDS011;12460;42.662;23.288;2023-12-28T12:05:09;35.60;;;28.77;;
3831;SDS011;12460;42.662;23.288;2023-12-28T12:20:11;37.00;;;29.60;;
3831;SDS011;12460;42.662;23.288;2023-12-28T12:35:13;31.10;;;25.97;;
3831;SDS011;12460;42.662;23.288;2023-12-28T12:50:16;29.17;;;24.33;;
3831;SDS011;12460;42.662;23.288;2023-12-28T13:05:18;29.07;;;23.60;;
3831;SDS011;12460;42.662;23.288;2023-12-28T13:20:20;30.13;;;25.03;;
3831;SDS011;12460;42.662;23.288;2023-12-28T13:35:22;28.30;;;23.60;;
3831;SDS011;12460;42.662;23.288;2023-12-28T13:50:24;29.77;;;23.13;;
3831;SDS011;12460;42.662;23.288;2023-12-28T14:05:26;31.50;;;23.10;;
3831;SDS011;12460;42.662;23.288;2023-12-28T14:20:31;38.57;;;23.90;;
3831;SDS011;12460;42.662;23.288;2023-12-28T14:35:33;37.20;;;22.80;;
3831;SDS011;12460;42.662;23.288;2023-12-28T14:50:35;39.47;;;25.43;;
3831;SDS011;12460;42.662;23.288;2023-12-28T15:05:37;38.30;;;23.40;;
3831;SDS011;12460;42.662;23.288;2023-12-28T15:20:39;38.50;;;23.97;;
3831;SDS011;12460;42.662;23.288;2023-12-28T15:35:41;39.47;;;24.53;;
3831;SDS011;12460;42.662;23.288;2023-12-28T15:50:43;34.73;;;19.60;;
3831;SDS011;12460;42.662;23.288;2023-12-28T16:05:45;35.17;;;19.43;;
3831;SDS011;12460;42.662;23.288;2023-12-28T16:20:47;35.50;;;22.50;;
3831;SDS011;12460;42.662;23.288;2023-12-28T16:35:49;30.53;;;22.37;;
3831;SDS011;12460;42.662;23.288;2023-12-28T16:50:51;28.33;;;20.90;;
3831;SDS011;12460;42.662;23.288;2023-12-28T17:05:53;31.10;;;18.57;;
3831;SDS011;12460;42.662;23.288;2023-12-28T17:20:55;31.87;;;22.50;;
3831;SDS011;12460;42.662;23.288;2023-12-28T17:35:57;33.20;;;22.93;;
3831;SDS011;12460;42.662;23.288;2023-12-28T17:50:59;35.80;;;22.50;;
3831;SDS011;12460;42.662;23.288;2023-12-28T18:06:03;35.43;;;22.90;;
3831;SDS011;12460;42.662;23.288;2023-12-28T18:21:05;41.77;;;26.20;;
3831;SDS011;12460;42.662;23.288;2023-12-28T18:36:08;44.00;;;29.17;;
3831;SDS011;12460;42.662;23.288;2023-12-28T18:51:14;51.33;;;32.53;;
3831;SDS011;12460;42.662;23.288;2023-12-28T19:06:17;46.60;;;29.80;;
3831;SDS011;12460;42.662;23.288;2023-12-28T19:21:19;47.87;;;31.37;;
3831;SDS011;12460;42.662;23.288;2023-12-28T19:36:22;48.50;;;31.97;;
3831;SDS011;12460;42.662;23.288;2023-12-28T19:51:24;42.63;;;29.80;;
3831;SDS011;12460;42.662;23.288;2023-12-28T20:06:26;44.53;;;29.10;;
3831;SDS011;12460;42.662;23.288;2023-12-28T20:21:28;36.97;;;24.47;;
3831;SDS011;12460;42.662;23.288;2023-12-28T20:36:30;34.77;;;22.47;;
3831;SDS011;12460;42.662;23.288;2023-12-28T20:51:32;40.50;;;25.63;;
3831;SDS011;12460;42.662;23.288;2023-12-28T21:06:34;48.13;;;28.33;;
3831;SDS011;12460;42.662;23.288;2023-12-28T21:21:36;37.77;;;23.70;;
3831;SDS011;12460;42.662;23.288;2023-12-28T21:36:39;45.53;;;27.20;;
3831;SDS011;12460;42.662;23.288;2023-12-28T21:51:44;33.77;;;21.90;;
3831;SDS011;12460;42.662;23.288;2023-12-28T22:06:46;31.87;;;20.77;;
3831;SDS011;12460;42.662;23.288;2023-12-28T22:21:48;39.93;;;25.20;;
3831;SDS011;12460;42.662;23.288;2023-12-28T22:36:51;33.23;;;20.87;;
3831;SDS011;12460;42.662;23.288;2023-12-28T22:51:54;25.10;;;16.17;;
3831;SDS011;12460;42.662;23.288;2023-12-28T23:06:56;28.03;;;18.70;;
3831;SDS011;12460;42.662;23.288;2023-12-28T23:21:58;23.87;;;16.73;;
3831;SDS011;12460;42.662;23.288;2023-12-28T23:36:59;22.80;;;16.40;;
3831;SDS011;12460;42.662;23.288;2023-12-28T23:52:01;25.47;;;16.80;;
